Time;durP1;ratioP1;P1;durP2;ratioP2;P2;SDS_P1;SDS_P2;PMS_P1;PMS_P2;Temp;Humidity;BMP_temperature;BMP_pressure;BME280_temperature;BME280_humidity;BME280_pressure;Samples;Min_cycle;Max_cycle;Signal;HPM_P1;HPM_P2
2022/04/14 00:02:07;;;;;;;9.40;1.90;;;;;;;7.10;46.51;101609.81;5036378;28;20310;-59
2022/04/14 00:04:39;;;;;;;4.70;1.98;;;;;;;7.16;46.28;101614.22;5036662;28;20469;-59
2022/04/14 00:07:10;;;;;;;8.45;2.22;;;;;;;7.28;47.04;101612.72;5033648;28;20072;-59
2022/04/14 00:09:41;;;;;;;4.50;1.45;;;;;;;7.53;45.98;101615.78;5036175;28;20411;-59
2022/04/14 00:12:12;;;;;;;5.93;1.75;;;;;;;7.55;45.42;101614.09;5036504;28;20367;-58
2022/04/14 00:14:44;;;;;;;4.88;1.92;;;;;;;7.71;45.94;101610.94;5033629;28;20547;-58
2022/04/14 00:17:15;;;;;;;5.25;1.80;;;;;;;7.62;44.58;101600.34;5035883;28;20080;-58
2022/04/14 00:19:46;;;;;;;6.82;1.63;;;;;;;7.97;44.62;101629.56;5034140;28;20083;-58
2022/04/14 00:22:20;;;;;;;3.13;1.60;;;;;;;8.28;44.37;101626.56;5034811;28;20057;-59
2022/04/14 00:24:51;;;;;;;7.05;2.05;;;;;;;8.34;44.10;101627.53;5036017;28;20060;-59
2022/04/14 00:27:22;;;;;;;4.60;1.90;;;;;;;8.33;44.13;101623.16;5035997;28;20045;-58
2022/04/14 00:29:54;;;;;;;5.15;1.55;;;;;;;8.46;44.08;101624.22;5036603;28;20262;-58
2022/04/14 00:32:25;;;;;;;4.85;1.60;;;;;;;8.13;43.09;101604.63;5036671;28;20060;-58
2022/04/14 00:34:55;;;;;;;5.40;1.40;;;;;;;8.29;42.89;101625.72;5033609;28;20403;-58
2022/04/14 00:37:26;;;;;;;4.18;1.58;;;;;;;8.36;44.59;101624.91;5036185;28;20061;-58
2022/04/14 00:39:57;;;;;;;5.80;1.60;;;;;;;8.61;43.99;101624.47;5036090;28;20120;-58
2022/04/14 00:42:27;;;;;;;6.00;1.70;;;;;;;8.45;41.34;101625.09;5036010;28;20080;-58
2022/04/14 00:45:00;;;;;;;4.22;1.60;;;;;;;8.66;42.71;101621.03;5035683;28;20069;-57
2022/04/14 00:47:31;;;;;;;5.70;1.42;;;;;;;8.45;41.66;101622.50;5035847;28;20041;-58
2022/04/14 00:50:02;;;;;;;4.07;1.40;;;;;;;8.28;41.38;101618.75;5035836;28;20117;-58
2022/04/14 00:52:32;;;;;;;8.63;2.20;;;;;;;8.28;42.25;101618.75;5033177;28;20045;-58
2022/04/14 00:55:03;;;;;;;3.45;1.48;;;;;;;8.50;43.74;101620.81;5035554;28;20510;-57
2022/04/14 00:57:34;;;;;;;3.83;1.38;;;;;;;8.70;41.88;101617.63;5033374;28;20057;-58
2022/04/14 01:00:07;;;;;;;4.45;1.20;;;;;;;8.89;43.29;101624.81;5035719;28;20071;-60
2022/04/14 01:02:45;;;;;;;3.20;1.52;;;;;;;8.94;42.10;101622.28;5035285;28;20041;-59
2022/04/14 01:05:16;;;;;;;4.28;1.52;;;;;;;8.89;43.64;101618.75;5036350;28;20053;-59
2022/04/14 01:07:48;;;;;;;3.13;1.60;;;;;;;8.97;42.94;101615.34;5034275;28;20589;-59
2022/04/14 01:10:19;;;;;;;4.57;1.67;;;;;;;9.34;44.98;101613.16;5035180;28;20033;-59
2022/04/14 01:12:50;;;;;;;5.40;1.67;;;;;;;9.47;43.91;101609.81;5032562;28;20053;-59
2022/04/14 01:15:22;;;;;;;3.08;1.45;;;;;;;9.55;43.56;101611.63;5035298;28;20124;-59
2022/04/14 01:17:56;;;;;;;6.85;1.75;;;;;;;9.27;42.12;101601.78;5033069;28;20049;-59
2022/04/14 01:20:27;;;;;;;5.95;1.67;;;;;;;8.74;41.25;101599.44;5035666;28;20261;-58
2022/04/14 01:23:02;;;;;;;6.43;1.55;;;;;;;8.64;42.64;101593.22;5033508;28;20046;-59
2022/04/14 01:25:35;;;;;;;6.85;1.70;;;;;;;8.58;41.57;101587.94;5032837;28;20057;-59
2022/04/14 01:28:07;;;;;;;3.03;1.65;;;;;;;8.34;41.06;101585.00;5035214;28;20263;-59
2022/04/14 01:30:38;;;;;;;5.03;1.88;;;;;;;8.27;42.84;101581.41;5033639;28;20088;-59
2022/04/14 01:33:08;;;;;;;7.32;1.48;;;;;;;8.34;43.57;101582.38;5039265;28;20268;-59
2022/04/14 01:35:39;;;;;;;5.47;1.60;;;;;;;8.72;45.04;101579.44;5039237;28;20205;-59
2022/04/14 01:38:10;;;;;;;4.80;1.85;;;;;;;8.75;43.22;101579.47;5039192;28;20072;-59
2022/04/14 01:40:42;;;;;;;3.53;1.60;;;;;;;8.82;43.70;101581.28;5039182;28;20049;-59
2022/04/14 01:43:12;;;;;;;2.35;1.45;;;;;;;8.82;43.04;101571.72;5041805;28;20037;-59
2022/04/14 01:45:48;;;;;;;2.00;1.30;;;;;;;9.03;44.51;101563.25;5040197;28;20080;-59
2022/04/14 01:48:19;;;;;;;5.28;1.50;;;;;;;9.09;42.71;101564.22;5040170;28;20113;-59
2022/04/14 01:50:50;;;;;;;5.55;1.60;;;;;;;9.04;41.68;101552.00;5040138;28;20140;-59
2022/04/14 01:53:21;;;;;;;3.72;1.30;;;;;;;8.65;41.52;101562.84;5045396;28;20391;-59
2022/04/14 01:55:53;;;;;;;4.85;1.50;;;;;;;8.60;43.50;101565.38;5044817;28;20048;-59
2022/04/14 01:58:23;;;;;;;3.63;1.35;;;;;;;8.25;42.27;101549.25;5040119;28;20081;-58
2022/04/14 02:00:54;;;;;;;3.67;1.35;;;;;;;8.16;43.58;101550.03;5040181;28;20344;-58
2022/04/14 02:03:25;;;;;;;3.63;1.65;;;;;;;8.34;43.78;101530.28;5040026;28;20480;-59
2022/04/14 02:05:56;;;;;;;2.35;1.23;;;;;;;8.62;43.54;101548.03;5038287;28;20264;-59
2022/04/14 02:08:27;;;;;;;6.60;1.70;;;;;;;8.75;43.77;101548.19;5039980;28;20403;-59
2022/04/14 02:11:00;;;;;;;3.25;1.40;;;;;;;8.93;43.20;101540.56;5038540;28;20064;-60
2022/04/14 02:13:31;;;;;;;2.83;1.35;;;;;;;9.02;43.24;101527.63;5039072;28;20328;-60
2022/04/14 02:16:02;;;;;;;4.03;1.35;;;;;;;9.18;44.21;101538.22;5048063;28;20405;-59
2022/04/14 02:18:33;;;;;;;3.47;1.40;;;;;;;9.35;43.16;101541.84;5040215;28;20065;-60
2022/04/14 02:21:03;;;;;;;3.50;1.30;;;;;;;9.22;42.03;101543.47;5022935;28;20122;-59
2022/04/14 02:23:34;;;;;;;2.33;1.10;;;;;;;8.92;40.89;101531.00;5022737;28;20355;-59
2022/04/14 02:26:06;;;;;;;3.83;1.30;;;;;;;8.55;42.95;101529.72;5038814;28;20053;-60
2022/04/14 02:28:37;;;;;;;3.75;1.30;;;;;;;8.93;43.56;101531.88;5038913;28;20068;-59
2022/04/14 02:31:08;;;;;;;3.28;1.13;;;;;;;8.88;41.89;101523.13;5038861;28;20057;-59
2022/04/14 02:33:38;;;;;;;3.45;1.45;;;;;;;9.06;43.06;101524.22;5036215;28;20053;-59
2022/04/14 02:36:09;;;;;;;3.30;1.40;;;;;;;9.23;42.33;101516.53;5036483;28;20042;-59
2022/04/14 02:38:43;;;;;;;3.55;1.05;;;;;;;9.44;42.50;101526.28;5034741;28;20465;-59
2022/04/14 02:41:15;;;;;;;2.13;1.40;;;;;;;9.76;42.29;101522.16;5050418;28;20136;-59
2022/04/14 02:43:47;;;;;;;2.70;1.30;;;;;;;9.74;43.25;101522.19;5048502;28;20045;-59
2022/04/14 02:46:18;;;;;;;2.63;1.30;;;;;;;9.68;41.71;101519.50;5036738;28;20049;-59
2022/04/14 02:48:49;;;;;;;3.60;1.50;;;;;;;9.44;40.92;101505.44;5039113;28;20053;-59
2022/04/14 02:51:19;;;;;;;3.83;1.52;;;;;;;9.19;40.61;101508.69;5038991;28;20116;-59
2022/04/14 02:53:50;;;;;;;2.88;1.20;;;;;;;9.68;42.29;101509.06;5039004;28;20053;-59
2022/04/14 02:56:22;;;;;;;4.15;1.17;;;;;;;9.58;40.29;101512.47;5038787;28;20136;-60
2022/04/14 02:58:53;;;;;;;1.85;1.30;;;;;;;9.30;41.50;101499.22;5038744;28;20403;-60
2022/04/14 03:01:23;;;;;;;5.60;1.30;;;;;;;9.31;40.28;101498.38;5038816;28;20183;-59
2022/04/14 03:03:54;;;;;;;4.25;1.30;;;;;;;9.42;40.82;101488.88;5040761;28;20049;-60
2022/04/14 03:06:25;;;;;;;2.50;1.30;;;;;;;9.47;41.71;101495.00;5037341;28;20374;-59
2022/04/14 03:08:55;;;;;;;6.93;1.30;;;;;;;9.76;41.14;101496.97;5037580;28;20120;-59
2022/04/14 03:11:28;;;;;;;4.55;1.30;;;;;;;9.63;40.54;101500.34;5038275;28;20116;-59
2022/04/14 03:13:58;;;;;;;3.38;1.10;;;;;;;9.49;40.91;101497.63;5037336;28;20063;-59
2022/04/14 03:16:29;;;;;;;3.30;1.40;;;;;;;9.38;41.22;101494.91;5038630;28;20045;-60
2022/04/14 03:19:00;;;;;;;4.45;1.30;;;;;;;9.79;41.32;101502.19;5037973;28;20041;-60
2022/04/14 03:21:31;;;;;;;9.05;1.33;;;;;;;10.17;40.57;101491.09;5038609;28;20371;-60
2022/04/14 03:24:01;;;;;;;5.72;1.10;;;;;;;10.41;39.22;101502.53;5038609;28;20085;-60
2022/04/14 03:26:34;;;;;;;9.98;1.60;;;;;;;10.40;39.30;101491.22;5038140;28;20063;-59
2022/04/14 03:29:04;;;;;;;2.95;1.10;;;;;;;10.23;37.40;101491.13;5038262;28;20069;-60
2022/04/14 03:31:35;;;;;;;3.33;1.27;;;;;;;10.30;37.94;101490.31;5038221;28;20081;-61
2022/04/14 03:34:06;;;;;;;4.13;1.38;;;;;;;9.89;37.87;101482.25;5038135;28;20056;-60
2022/04/14 03:36:36;;;;;;;5.13;1.60;;;;;;;10.33;39.22;101482.53;5038044;28;20538;-60
2022/04/14 03:39:07;;;;;;;3.88;0.90;;;;;;;10.45;38.95;101478.19;5038051;28;20088;-59
2022/04/14 03:41:40;;;;;;;1.75;0.90;;;;;;;10.19;38.21;101483.28;5038028;28;20229;-60
2022/04/14 03:44:10;;;;;;;2.00;1.00;;;;;;;9.85;37.87;101476.13;5037331;28;20112;-59
2022/04/14 03:46:41;;;;;;;13.57;1.88;;;;;;;9.27;38.65;101470.50;5036816;28;20081;-60
2022/04/14 03:49:12;;;;;;;3.95;1.35;;;;;;;9.71;39.33;101467.34;5038101;28;20054;-59
2022/04/14 03:51:43;;;;;;;3.17;1.05;;;;;;;10.07;38.34;101465.81;5037892;28;20383;-60
2022/04/14 03:54:13;;;;;;;2.28;1.00;;;;;;;10.43;39.46;101451.16;5036747;28;20068;-60
2022/04/14 03:56:46;;;;;;;6.63;1.50;;;;;;;10.65;39.41;101450.38;5037820;28;20057;-59
2022/04/14 03:59:17;;;;;;;4.85;1.27;;;;;;;10.83;39.02;101449.53;5037815;28;20081;-60
2022/04/14 04:01:48;;;;;;;2.15;1.10;;;;;;;10.82;38.02;101447.78;5037964;28;20065;-60
2022/04/14 04:04:19;;;;;;;4.30;1.10;;;;;;;10.65;37.88;101450.38;5037007;28;20240;-60
2022/04/14 04:06:49;;;;;;;5.72;0.98;;;;;;;10.60;37.16;101451.22;5057607;28;20382;-59
2022/04/14 04:09:20;;;;;;;3.55;1.20;;;;;;;10.47;37.34;101443.34;5057430;28;20347;-59
2022/04/14 04:11:52;;;;;;;2.15;1.13;;;;;;;10.44;37.32;101439.88;5057562;28;20053;-58
2022/04/14 04:14:23;;;;;;;2.38;1.00;;;;;;;10.33;36.58;101440.72;5057493;28;20111;-59
2022/04/14 04:16:54;;;;;;;3.70;1.02;;;;;;;10.22;37.98;101424.09;5057575;28;20420;-59
2022/04/14 04:19:24;;;;;;;8.55;1.35;;;;;;;10.31;38.98;101429.38;5057470;28;20267;-59
2022/04/14 04:21:55;;;;;;;3.10;0.93;;;;;;;10.15;36.85;101427.53;5057277;28;20065;-59
2022/04/14 04:24:26;;;;;;;4.93;1.17;;;;;;;9.81;37.20;101424.78;5057243;28;20056;-59
2022/04/14 04:26:58;;;;;;;3.00;1.00;;;;;;;9.53;37.49;101415.91;5057155;28;20080;-59
2022/04/14 04:29:29;;;;;;;2.13;1.05;;;;;;;9.54;39.00;101412.44;5057179;28;20071;-59
2022/04/14 04:31:59;;;;;;;1.65;1.10;;;;;;;9.48;38.18;101413.28;5057220;28;20116;-59
2022/04/14 04:34:30;;;;;;;8.70;1.88;;;;;;;9.28;38.35;101414.84;5057332;28;20080;-59
2022/04/14 04:37:00;;;;;;;4.20;1.60;;;;;;;8.86;36.39;101411.03;5057181;28;20053;-59
2022/04/14 04:39:31;;;;;;;1.92;1.20;;;;;;;8.41;38.28;101405.41;5056864;28;20095;-57
2022/04/14 04:42:03;;;;;;;3.60;1.20;;;;;;;8.31;38.62;101400.03;5055641;28;20102;-58
2022/04/14 04:44:34;;;;;;;3.13;1.15;;;;;;;8.30;39.95;101399.16;5036948;28;20049;-57
2022/04/14 04:47:05;;;;;;;3.65;1.40;;;;;;;8.42;40.39;101394.13;5036719;28;20088;-57
2022/04/14 04:49:35;;;;;;;0.93;0.88;;;;;;;8.32;39.82;101401.78;5037219;28;20055;-59
2022/04/14 04:52:07;;;;;;;3.40;1.10;;;;;;;7.99;39.45;101392.72;5030272;28;20061;-57
2022/04/14 04:54:37;;;;;;;10.32;1.92;;;;;;;7.70;41.58;101393.22;5033003;28;20539;-57
2022/04/14 04:57:09;;;;;;;3.13;1.20;;;;;;;7.82;41.93;101391.66;5032722;28;20060;-58
2022/04/14 04:59:40;;;;;;;2.78;1.00;;;;;;;7.94;41.73;101386.59;5032747;28;20051;-59
2022/04/14 05:02:12;;;;;;;2.40;1.08;;;;;;;8.16;42.13;101391.22;5033046;28;20049;-58
2022/04/14 05:04:43;;;;;;;5.85;1.30;;;;;;;8.20;40.71;101387.75;5032856;28;20045;-59
2022/04/14 05:07:14;;;;;;;10.85;1.50;;;;;;;8.12;41.14;101388.53;5031971;28;20116;-59
2022/04/14 05:09:44;;;;;;;4.63;1.35;;;;;;;7.98;41.25;101390.97;5032127;28;20049;-58
2022/04/14 05:12:17;;;;;;;1.88;0.88;;;;;;;8.25;41.90;101384.34;5032992;28;20117;-59
2022/04/14 05:14:47;;;;;;;3.05;1.20;;;;;;;8.43;41.56;101389.78;5033330;28;20050;-58
2022/04/14 05:17:18;;;;;;;5.05;1.38;;;;;;;8.56;40.21;101385.56;5032442;28;20094;-59
2022/04/14 05:19:48;;;;;;;4.70;1.30;;;;;;;8.52;42.01;101384.66;5032510;28;20117;-58
2022/04/14 05:22:19;;;;;;;6.57;1.40;;;;;;;8.70;40.60;101377.88;5032897;28;20095;-58
2022/04/14 05:24:50;;;;;;;1.52;1.17;;;;;;;8.79;39.48;101377.97;5032490;28;20553;-59
2022/04/14 05:27:22;;;;;;;1.67;0.90;;;;;;;8.81;40.00;101381.44;5032852;28;20152;-59
2022/04/14 05:29:53;;;;;;;4.65;1.40;;;;;;;8.91;40.06;101380.69;5031719;28;20513;-58
2022/04/14 05:32:23;;;;;;;2.97;1.48;;;;;;;8.89;39.51;101379.81;5033041;28;20061;-58
2022/04/14 05:34:58;;;;;;;3.58;1.40;;;;;;;8.90;39.30;101376.31;5032111;28;20061;-58
2022/04/14 05:37:29;;;;;;;5.95;1.80;;;;;;;8.96;41.88;101381.59;5032752;28;20049;-58
2022/04/14 05:39:59;;;;;;;7.43;2.45;;;;;;;8.88;42.94;101378.03;5032871;28;20111;-58
2022/04/14 05:42:32;;;;;;;9.88;2.35;;;;;;;8.94;44.17;101378.09;5032795;28;20047;-59
2022/04/14 05:45:02;;;;;;;8.13;2.20;;;;;;;9.05;44.31;101371.22;5032856;28;20061;-58
2022/04/14 05:47:33;;;;;;;4.78;1.75;;;;;;;9.04;42.49;101373.84;5033127;28;20056;-58
2022/04/14 05:50:04;;;;;;;5.82;1.80;;;;;;;8.89;43.92;101377.19;5031067;28;20346;-58
2022/04/14 05:52:35;;;;;;;11.00;2.17;;;;;;;8.87;44.13;101360.66;5030950;28;20088;-58
2022/04/14 05:55:06;;;;;;;11.45;2.38;;;;;;;8.89;44.53;101358.94;5032582;28;20077;-58
2022/04/14 05:57:39;;;;;;;8.00;2.08;;;;;;;8.82;43.92;101370.19;5032877;28;20368;-57
2022/04/14 06:00:13;;;;;;;10.57;2.45;;;;;;;8.37;44.63;101306.34;5031500;28;20121;-58
2022/04/14 06:02:44;;;;;;;8.80;2.33;;;;;;;8.70;44.57;101372.69;5032048;28;20081;-58
2022/04/14 06:05:15;;;;;;;9.02;1.30;;;;;;;8.61;44.59;101369.13;5032527;28;20065;-58
2022/04/14 06:07:45;;;;;;;9.75;2.05;;;;;;;8.42;44.15;101362.00;5032724;28;20331;-58
2022/04/14 06:10:18;;;;;;;9.75;2.10;;;;;;;8.35;44.47;101365.34;5031723;28;20901;-58
2022/04/14 06:12:50;;;;;;;7.72;2.33;;;;;;;8.27;44.98;101372.22;5031889;28;20088;-58
2022/04/14 06:15:21;;;;;;;6.20;1.90;;;;;;;8.15;44.98;101373.81;5032430;28;20054;-58
2022/04/14 06:17:52;;;;;;;6.93;2.10;;;;;;;8.19;44.91;101373.00;5034309;28;20049;-58
2022/04/14 06:20:23;;;;;;;11.25;3.58;;;;;;;8.38;45.40;101368.00;5035670;28;20079;-57
2022/04/14 06:22:55;;;;;;;19.40;2.65;;;;;;;8.50;44.83;101368.16;5035769;28;20072;-58
2022/04/14 06:25:27;;;;;;;8.90;2.28;;;;;;;8.32;44.65;101361.00;5034953;28;20073;-59
2022/04/14 06:28:00;;;;;;;7.80;2.13;;;;;;;8.15;44.87;101363.41;5035580;28;20049;-58
2022/04/14 06:30:31;;;;;;;10.52;2.47;;;;;;;8.01;45.53;101362.38;5034796;28;20076;-58
2022/04/14 06:33:04;;;;;;;20.38;2.58;;;;;;;7.74;45.53;101327.38;5036136;28;20133;-58
2022/04/14 06:35:35;;;;;;;11.07;2.17;;;;;;;7.89;45.69;101359.66;5036112;28;20053;-57
2022/04/14 06:38:06;;;;;;;7.70;2.30;;;;;;;7.81;46.10;101372.53;5035937;28;20429;-57
2022/04/14 06:40:37;;;;;;;4.53;1.98;;;;;;;7.74;46.19;101366.41;5035696;28;20113;-57
2022/04/14 06:43:09;;;;;;;5.72;2.03;;;;;;;7.74;46.11;101366.41;5035468;28;20081;-57
2022/04/14 06:45:40;;;;;;;9.60;2.22;;;;;;;7.74;46.19;101366.41;5035553;28;20116;-57
2022/04/14 06:48:11;;;;;;;8.98;2.03;;;;;;;7.82;45.80;101363.91;5034567;28;20077;-57
2022/04/14 06:50:41;;;;;;;4.32;2.25;;;;;;;7.77;45.47;101361.22;5035450;28;20049;-57
2022/04/14 06:53:12;;;;;;;7.78;1.67;;;;;;;7.74;45.72;101366.41;5035236;28;20080;-58
2022/04/14 06:55:47;;;;;;;8.73;1.80;;;;;;;7.76;45.47;101354.28;5035268;28;20059;-58
2022/04/14 06:58:20;;;;;;;6.60;2.20;;;;;;;7.66;45.30;101347.22;5035177;28;20067;-56
2022/04/14 07:00:50;;;;;;;9.40;1.95;;;;;;;7.63;45.92;101362.78;5034825;28;20113;-57
2022/04/14 07:03:26;;;;;;;6.53;1.98;;;;;;;7.73;46.29;101354.22;5035076;28;20079;-58
2022/04/14 07:05:58;;;;;;;8.07;2.13;;;;;;;7.68;46.55;101363.69;5035392;28;20049;-57
2022/04/14 07:08:29;;;;;;;8.32;1.67;;;;;;;7.49;46.31;101348.72;5035587;28;20992;-58
2022/04/14 07:11:00;;;;;;;3.75;1.83;;;;;;;7.53;45.29;101360.91;5035221;28;20383;-58
2022/04/14 07:13:33;;;;;;;6.65;2.25;;;;;;;7.39;45.32;101367.63;5034899;28;20057;-57
2022/04/14 07:16:04;;;;;;;3.25;1.77;;;;;;;7.24;44.90;101374.38;5034898;28;20060;-58
2022/04/14 07:18:35;;;;;;;4.72;1.90;;;;;;;7.17;44.13;101367.31;5034818;28;20061;-57
2022/04/14 07:21:06;;;;;;;3.55;1.40;;;;;;;7.28;42.88;101373.53;5034721;28;20062;-57
2022/04/14 07:23:37;;;;;;;8.52;1.30;;;;;;;7.34;43.50;101368.44;5034930;28;20118;-56
2022/04/14 07:26:08;;;;;;;2.55;1.33;;;;;;;7.34;43.21;101370.19;5034760;28;20258;-57
2022/04/14 07:28:40;;;;;;;2.83;1.50;;;;;;;7.02;44.02;101351.50;5033392;28;20709;-57
2022/04/14 07:31:11;;;;;;;10.57;1.75;;;;;;;7.07;45.05;101370.63;5034066;28;20111;-57
2022/04/14 07:33:42;;;;;;;2.65;1.38;;;;;;;7.01;44.04;101378.31;5034672;28;20045;-57
2022/04/14 07:36:18;;;;;;;5.07;1.52;;;;;;;6.96;44.17;101370.44;5034144;28;20049;-58
2022/04/14 07:39:05;;;;;;;6.97;1.63;;;;;;;6.98;44.96;101370.47;5034759;28;20099;-57
2022/04/14 07:41:36;;;;;;;5.18;1.60;;;;;;;6.73;43.47;101328.50;5034820;28;20099;-58
2022/04/14 07:44:09;;;;;;;6.30;1.35;;;;;;;6.90;42.72;101376.44;5034868;28;20099;-58
2022/04/14 07:46:41;;;;;;;3.85;1.20;;;;;;;6.80;42.17;101379.72;5034536;28;20331;-58
2022/04/14 07:49:11;;;;;;;2.63;1.02;;;;;;;6.69;40.14;101371.75;5034720;28;20057;-57
2022/04/14 07:51:42;;;;;;;7.30;1.30;;;;;;;6.56;41.92;101381.88;5033950;28;20081;-57
2022/04/14 07:54:12;;;;;;;16.48;1.50;;;;;;;6.44;41.74;101383.44;5034181;28;20053;-57
2022/04/14 07:56:44;;;;;;;12.77;1.60;;;;;;;6.28;41.76;101375.31;5034249;28;20057;-58
2022/04/14 07:59:17;;;;;;;11.95;1.70;;;;;;;6.17;42.78;101375.13;5034404;28;20081;-58
2022/04/14 08:01:47;;;;;;;6.15;1.75;;;;;;;6.01;42.13;101377.38;5033573;28;20049;-59
2022/04/14 08:04:18;;;;;;;7.30;1.50;;;;;;;6.03;42.67;101380.03;5034203;28;20057;-57
2022/04/14 08:06:49;;;;;;;9.77;2.15;;;;;;;6.09;42.59;101374.06;5033445;28;20124;-58
2022/04/14 08:09:39;;;;;;;5.53;1.17;;;;;;;6.03;43.28;101380.91;5032461;28;20263;-58
2022/04/14 08:12:12;;;;;;;22.90;1.52;;;;;;;5.99;43.16;101373.91;5031927;28;20142;-57
2022/04/14 08:14:44;;;;;;;3.72;1.20;;;;;;;5.95;43.81;101372.09;5032638;28;20434;-57
2022/04/14 08:17:15;;;;;;;14.05;1.48;;;;;;;5.89;43.23;101366.75;5032834;28;20075;-57
2022/04/14 08:19:45;;;;;;;3.83;1.30;;;;;;;5.70;43.64;101364.63;5032475;28;20060;-58
2022/04/14 08:22:16;;;;;;;5.68;1.63;;;;;;;5.55;44.28;101360.84;5032624;28;20061;-57
2022/04/14 08:24:47;;;;;;;6.25;1.30;;;;;;;5.49;44.55;101360.72;5032649;28;20061;-57
2022/04/14 08:27:18;;;;;;;13.27;2.45;;;;;;;5.46;44.77;101365.81;5033667;28;20052;-56
2022/04/14 08:29:51;;;;;;;5.10;1.60;;;;;;;5.44;45.32;101367.50;5033703;28;20065;-57
2022/04/14 08:32:21;;;;;;;7.28;1.30;;;;;;;5.45;45.67;101364.09;5033112;28;20077;-57
2022/04/14 08:34:52;;;;;;;3.95;1.30;;;;;;;5.38;45.64;101367.38;5032874;28;20501;-57
2022/04/14 08:37:23;;;;;;;15.20;1.83;;;;;;;5.31;45.73;101360.31;5032671;28;20048;-57
2022/04/14 08:39:59;;;;;;;15.68;2.13;;;;;;;5.14;45.67;101353.03;5032436;28;20089;-56
2022/04/14 08:42:37;;;;;;;17.30;2.40;;;;;;;5.13;46.54;101353.00;5032213;28;20049;-56
2022/04/14 08:45:11;;;;;;;19.67;2.65;;;;;;;5.04;46.90;101356.25;5032436;28;20172;-56
2022/04/14 08:47:43;;;;;;;18.20;1.70;;;;;;;4.94;46.86;101343.91;5032002;28;20053;-56
2022/04/14 08:50:14;;;;;;;9.60;2.10;;;;;;;4.94;47.02;101354.25;5032436;28;20047;-57
2022/04/14 08:52:45;;;;;;;8.95;2.85;;;;;;;4.93;46.75;101365.47;5032000;28;20064;-57
2022/04/14 08:55:15;;;;;;;10.27;1.58;;;;;;;4.83;46.99;101355.72;5032522;28;20247;-57
2022/04/14 08:57:46;;;;;;;8.32;1.92;;;;;;;4.80;47.20;101358.25;5032537;28;20217;-57
2022/04/14 09:00:20;;;;;;;9.95;1.80;;;;;;;4.68;47.79;101362.25;5031969;28;20103;-56
2022/04/14 09:02:53;;;;;;;11.40;2.22;;;;;;;4.46;48.63;101366.00;5031765;28;20547;-56
2022/04/14 09:05:23;;;;;;;22.80;3.50;;;;;;;4.17;50.83;101351.41;5032087;28;20061;-57
2022/04/14 09:07:54;;;;;;;150.57;9.07;;;;;;;4.04;53.39;101370.91;5032287;28;20056;-57
2022/04/14 09:10:25;;;;;;;34.95;3.63;;;;;;;3.77;55.73;101366.72;5032383;28;20065;-56
2022/04/14 09:12:55;;;;;;;13.75;1.83;;;;;;;3.59;56.74;101377.38;5032146;28;20063;-58
2022/04/14 09:15:29;;;;;;;6.22;1.55;;;;;;;3.43;57.46;101373.44;5032548;28;20107;-58
2022/04/14 09:18:00;;;;;;;18.88;2.17;;;;;;;3.30;58.18;101383.38;5032924;28;20302;-58
2022/04/14 09:20:36;;;;;;;10.43;2.05;;;;;;;3.05;59.45;101377.44;5033015;28;20120;-57
2022/04/14 09:23:13;;;;;;;6.07;1.77;;;;;;;2.86;59.93;101386.28;5033110;28;20056;-57
2022/04/14 09:25:44;;;;;;;15.25;1.85;;;;;;;2.65;60.57;101375.25;5033020;28;20057;-58
2022/04/14 09:28:16;;;;;;;2.97;1.67;;;;;;;2.54;61.24;101387.78;5033078;28;20104;-57
2022/04/14 09:31:03;;;;;;;3.88;1.38;;;;;;;2.25;61.64;101385.06;5032812;28;20044;-57
2022/04/14 09:33:35;;;;;;;7.00;1.40;;;;;;;2.18;62.23;101400.28;5032441;28;20331;-57
2022/04/14 09:36:16;;;;;;;3.70;1.42;;;;;;;1.70;62.67;101342.72;5032977;28;20549;-57
2022/04/14 09:38:52;;;;;;;;;;;;;;;1.93;63.38;101404.53;5033161;28;20065;-57
2022/04/14 09:41:31;;;;;;;29.73;2.03;;;;;;;1.84;64.17;101397.31;5032762;28;19979;-57
2022/04/14 09:44:02;;;;;;;52.47;3.22;;;;;;;1.90;64.42;101397.56;5032793;28;20084;-57
2022/04/14 09:46:35;;;;;;;7.28;2.55;;;;;;;1.99;63.78;101397.00;5032617;28;20049;-58
2022/04/14 09:49:10;;;;;;;10.32;1.83;;;;;;;1.88;63.43;101385.44;5033148;28;20053;-57
2022/04/14 09:51:43;;;;;;;6.80;2.63;;;;;;;1.88;63.30;101398.34;5033252;28;20379;-57
2022/04/14 09:54:15;;;;;;;5.00;2.17;;;;;;;1.84;63.21;101388.72;5036866;28;20767;-57
2022/04/14 09:56:51;;;;;;;11.50;3.97;;;;;;;1.95;64.68;101395.16;5036639;28;20061;-58
2022/04/14 09:59:22;;;;;;;26.70;6.22;;;;;;;1.78;64.24;101370.47;5036229;28;20064;-57
2022/04/14 10:02:12;;;;;;;12.02;3.90;;;;;;;1.95;64.30;101400.31;5036349;28;20537;-58
2022/04/14 10:04:44;;;;;;;19.67;2.90;;;;;;;1.77;63.98;101399.63;5036451;28;20107;-57
2022/04/14 10:07:16;;;;;;;32.80;3.55;;;;;;;0.93;64.25;101291.69;5036426;28;20073;-57
2022/04/14 10:09:48;;;;;;;24.70;4.53;;;;;;;1.33;65.76;101411.69;5036619;28;20140;-57
2022/04/14 10:12:31;;;;;;;10.52;2.97;;;;;;;1.07;66.81;101406.34;5036101;28;20059;-58
2022/04/14 10:15:08;;;;;;;12.88;3.20;;;;;;;0.80;67.37;101388.97;5036311;28;20883;-58
2022/04/14 10:17:40;;;;;;;11.32;6.10;;;;;;;0.76;68.47;101412.81;5035566;28;20076;-57
2022/04/14 10:20:14;;;;;;;68.95;25.77;;;;;;;0.55;68.99;101411.91;5035585;28;20085;-56
2022/04/14 10:22:45;;;;;;;43.00;14.60;;;;;;;0.32;69.56;101424.63;5035755;28;20120;-57
2022/04/14 10:25:17;;;;;;;74.00;28.83;;;;;;;0.14;70.61;101413.56;5035869;28;20087;-57
2022/04/14 10:27:50;;;;;;;89.63;31.38;;;;;;;-0.21;71.26;101379.47;5035822;28;20061;-58
2022/04/14 10:30:21;;;;;;;92.45;24.60;;;;;;;-0.07;71.85;101427.22;5035801;28;20061;-57
2022/04/14 10:32:55;;;;;;;31.27;8.32;;;;;;;-0.13;71.88;101434.63;5035304;28;20056;-57
2022/04/14 10:35:28;;;;;;;14.93;5.53;;;;;;;-0.22;72.57;101436.78;5035758;28;20045;-57
2022/04/14 10:38:07;;;;;;;8.65;4.05;;;;;;;-0.26;73.56;101442.59;5035221;28;20053;-57
2022/04/14 10:40:38;;;;;;;7.25;3.47;;;;;;;-0.27;74.25;101445.97;5035622;28;20133;-57
2022/04/14 10:43:12;;;;;;;5.00;2.10;;;;;;;-0.25;74.45;101444.34;5035730;28;20046;-57
2022/04/14 10:45:51;;;;;;;4.47;2.47;;;;;;;-0.35;75.02;101426.75;5035854;28;20108;-57
2022/04/14 10:48:34;;;;;;;10.00;3.10;;;;;;;-0.33;74.89;101435.41;5035077;28;20057;-57
2022/04/14 10:51:25;;;;;;;7.20;3.80;;;;;;;-0.35;75.18;101431.88;5035144;28;20050;-57
2022/04/14 10:54:00;;;;;;;10.65;7.47;;;;;;;-0.31;75.28;101433.78;5035091;28;20346;-57
2022/04/14 10:56:51;;;;;;;14.95;9.55;;;;;;;-0.36;75.05;101427.56;5034904;28;20072;-57
2022/04/14 10:59:23;;;;;;;16.73;7.82;;;;;;;-0.26;74.92;101437.44;5035442;28;20063;-57
2022/04/14 11:02:04;;;;;;;38.85;17.88;;;;;;;-0.27;74.01;101425.44;5034700;28;20282;-57
2022/04/14 11:04:49;;;;;;;64.28;27.25;;;;;;;-0.82;73.72;101345.81;5034049;28;20053;-56
2022/04/14 11:07:21;;;;;;;51.55;22.25;;;;;;;-0.52;73.72;101403.75;5034566;28;20302;-57
2022/04/14 11:09:57;;;;;;;33.58;15.18;;;;;;;-0.32;73.59;101432.03;5033420;28;20050;-57
2022/04/14 11:12:32;;;;;;;16.25;8.15;;;;;;;-0.21;73.80;101451.38;5032521;28;20041;-57
2022/04/14 11:15:04;;;;;;;15.90;6.05;;;;;;;-0.48;73.62;101405.63;5035071;28;20100;-57
2022/04/14 11:18:04;;;;;;;12.27;5.25;;;;;;;-0.13;73.27;101439.75;5034958;28;20077;-57
2022/04/14 11:21:09;;;;;;;9.32;3.58;;;;;;;-0.02;73.41;101438.59;5034483;28;20248;-57
2022/04/14 11:23:42;;;;;;;6.55;3.38;;;;;;;0.08;73.83;101439.88;5034853;28;20291;-57
2022/04/14 11:26:13;;;;;;;6.78;3.10;;;;;;;0.10;73.31;101432.22;5034857;28;20054;-57
2022/04/14 11:28:57;;;;;;;8.30;3.03;;;;;;;0.19;73.27;101430.06;5033819;28;20072;-57
2022/04/14 11:31:28;;;;;;;11.02;3.97;;;;;;;0.21;73.11;101431.88;5033841;28;20056;-57
2022/04/14 11:33:59;;;;;;;6.88;2.97;;;;;;;0.24;72.71;101436.28;5033570;28;20150;-57
2022/04/14 11:36:46;;;;;;;8.98;3.70;;;;;;;0.27;72.17;101431.28;5033563;28;20112;-57
2022/04/14 11:39:25;;;;;;;11.90;4.65;;;;;;;0.18;71.76;101397.47;5033979;28;20170;-57
2022/04/14 11:41:58;;;;;;;12.75;4.35;;;;;;;0.36;71.50;101416.25;5034477;28;20057;-57
2022/04/14 11:44:31;;;;;;;11.50;4.05;;;;;;;0.36;71.07;101405.97;5034391;28;20045;-57
2022/04/14 11:47:02;;;;;;;8.70;4.22;;;;;;;-0.27;70.78;101307.28;5034449;28;20050;-57
2022/04/14 11:49:34;;;;;;;14.85;4.55;;;;;;;0.53;70.17;101413.56;5034412;28;20335;-59
2022/04/14 11:52:09;;;;;;;9.98;3.38;;;;;;;0.55;69.99;101409.31;5034074;28;20136;-57
2022/04/14 11:54:40;;;;;;;11.15;3.67;;;;;;;-0.03;70.03;101316.03;5032609;28;20508;-57